createdAt,value
2023-02-15T00:04:56.533Z,100905.22
2023-02-15T00:11:12.489Z,100897.29
2023-02-15T00:13:41.810Z,100899.41
2023-02-15T00:16:13.501Z,100897.90
2023-02-15T00:19:11.696Z,100900.25
2023-02-15T00:21:58.136Z,100902.52
2023-02-15T00:24:53.171Z,100904.77
2023-02-15T00:27:25.271Z,100906.53
2023-02-15T00:29:55.322Z,100908.52
2023-02-15T00:32:35.436Z,100910.23
2023-02-15T00:35:03.644Z,100911.92
2023-02-15T00:37:31.654Z,100912.58
2023-02-15T00:40:15.418Z,100910.64
2023-02-15T00:42:42.721Z,100913.09
2023-02-15T00:45:29.573Z,100914.05
2023-02-15T00:48:09.310Z,100916.84
2023-02-15T00:51:08.873Z,100914.13
2023-02-15T00:53:39.812Z,100916.20
2023-02-15T00:56:14.344Z,100914.61
2023-02-15T00:58:41.666Z,100914.72
2023-02-15T01:05:16.225Z,100920.42
2023-02-15T01:07:44.815Z,100926.60
2023-02-15T01:10:48.816Z,100926.71
2023-02-15T01:13:33.636Z,100929.84
2023-02-15T01:16:38.232Z,100931.23
2023-02-15T01:19:11.990Z,100927.36
2023-02-15T01:21:41.081Z,100925.74
2023-02-15T01:24:24.019Z,100923.44
2023-02-15T01:26:54.966Z,100916.27
2023-02-15T01:29:30.550Z,100915.28
2023-02-15T01:32:01.422Z,100919.61
2023-02-15T01:34:39.080Z,100919.35
2023-02-15T01:40:18.940Z,100926.22
2023-02-15T01:42:46.848Z,100927.56
2023-02-15T01:45:30.487Z,100925.32
2023-02-15T01:48:23.745Z,100929.64
2023-02-15T01:51:14.988Z,100929.14
2023-02-15T01:53:48.081Z,100930.22
2023-02-15T01:56:29.233Z,100926.59
2023-02-15T01:59:42.680Z,100928.35
2023-02-15T02:02:14.272Z,100928.96
2023-02-15T02:04:59.630Z,100932.40
2023-02-15T02:10:02.580Z,100929.83
2023-02-15T02:13:36.788Z,100927.26
2023-02-15T02:16:16.670Z,100931.08
2023-02-15T02:20:20.416Z,100926.27
2023-02-15T02:24:12.190Z,100935.38
2023-02-15T02:26:57.391Z,100937.97
2023-02-15T02:30:26.300Z,100941.60
2023-02-15T02:33:30.028Z,100941.98
2023-02-15T02:36:34.514Z,100947.95
2023-02-15T02:39:45.580Z,100947.49
2023-02-15T02:43:23.782Z,100947.19
2023-02-15T02:46:08.619Z,100950.09
2023-02-15T02:49:05.499Z,100950.37
2023-02-15T02:55:53.968Z,100942.59
2023-02-15T02:58:34.828Z,100947.69
2023-02-15T03:05:22.116Z,100948.86
2023-02-15T03:08:01.571Z,100951.21
2023-02-15T03:10:38.040Z,100951.28
2023-02-15T03:13:19.169Z,100958.06
2023-02-15T03:16:28.969Z,100965.52
2023-02-15T03:19:22.977Z,100969.95
2023-02-15T03:22:30.225Z,100969.67
2023-02-15T03:25:09.481Z,100970.27
2023-02-15T03:28:59.022Z,100969.45
2023-02-15T03:31:45.523Z,100964.72
2023-02-15T03:34:59.262Z,100964.70
2023-02-15T03:37:53.448Z,100966.52
2023-02-15T03:41:17.635Z,100970.80
2023-02-15T03:44:35.051Z,100975.20
2023-02-15T03:47:19.435Z,100973.25
2023-02-15T03:50:43.153Z,100979.30
2023-02-15T03:53:51.424Z,100975.55
2023-02-15T03:57:19.251Z,100979.76
2023-02-15T04:01:17.915Z,100973.98
2023-02-15T04:04:14.131Z,100978.30
2023-02-15T04:06:50.843Z,100985.20
2023-02-15T04:09:55.940Z,100988.44
2023-02-15T04:12:57.840Z,100991.05
2023-02-15T04:15:57.667Z,100993.46
2023-02-15T04:19:11.050Z,100997.23
2023-02-15T04:22:31.010Z,100997.67
2023-02-15T04:25:31.842Z,100991.36
2023-02-15T04:29:06.685Z,100997.84
2023-02-15T04:35:50.312Z,101002.17
2023-02-15T04:38:26.885Z,101003.66
2023-02-15T04:41:37.926Z,101003.50
2023-02-15T04:44:34.190Z,101004.43
2023-02-15T04:47:19.185Z,101001.04
2023-02-15T04:49:48.431Z,100999.00
2023-02-15T04:52:26.908Z,101002.27
2023-02-15T04:55:03.413Z,101007.79
2023-02-15T05:01:01.745Z,101013.61
2023-02-15T05:04:18.273Z,101021.05
2023-02-15T05:07:21.641Z,101026.26
2023-02-15T05:10:36.705Z,101037.44
2023-02-15T05:16:36.494Z,101042.46
2023-02-15T05:19:16.947Z,101039.05
2023-02-15T05:22:07.546Z,101035.59
2023-02-15T05:24:55.155Z,101039.19
2023-02-15T05:35:40.260Z,101048.34
2023-02-15T05:38:11.701Z,101057.14
2023-02-15T05:41:23.298Z,101056.09
2023-02-15T05:43:57.206Z,101058.33
2023-02-15T05:46:26.257Z,101061.23
2023-02-15T05:49:18.148Z,101059.14
2023-02-15T05:52:16.804Z,101061.09
2023-02-15T05:55:11.627Z,101061.47
2023-02-15T05:58:21.773Z,101065.00
2023-02-15T06:01:00.194Z,101070.15
2023-02-15T06:03:41.539Z,101072.88
2023-02-15T06:06:43.134Z,101077.60
2023-02-15T06:09:30.644Z,101084.60
2023-02-15T06:12:31.977Z,101086.13
2023-02-15T06:15:24.049Z,101085.14
2023-02-15T06:18:15.480Z,101087.28
2023-02-15T06:20:52.739Z,101091.64
2023-02-15T06:23:31.870Z,101090.97
2023-02-15T06:26:11.951Z,101092.42
2023-02-15T06:29:00.238Z,101088.91
2023-02-15T06:32:00.421Z,101082.67
2023-02-15T06:34:32.875Z,101086.07
2023-02-15T06:38:01.351Z,101086.05
2023-02-15T06:40:52.311Z,101084.73
2023-02-15T06:43:33.353Z,101080.94
2023-02-15T06:46:03.162Z,101079.41
2023-02-15T06:49:02.677Z,101079.42
2023-02-15T06:51:42.363Z,101078.01
2023-02-15T06:55:18.298Z,101079.74
2023-02-15T06:58:07.923Z,101077.68
2023-02-15T07:00:42.920Z,101074.96
2023-02-15T07:03:14.571Z,101074.94
2023-02-15T07:06:07.098Z,101070.08
2023-02-15T07:08:44.309Z,101066.05
2023-02-15T07:16:33.102Z,101072.67
2023-02-15T07:19:43.370Z,101077.70
2023-02-15T07:22:20.303Z,101077.88
2023-02-15T07:26:40.892Z,101072.70
2023-02-15T07:29:25.335Z,101071.64
2023-02-15T07:33:05.107Z,101069.69
2023-02-15T07:36:39.110Z,101059.80
2023-02-15T07:39:12.853Z,101054.09
2023-02-15T07:41:47.689Z,101053.25
2023-02-15T07:47:50.293Z,101059.14
2023-02-15T07:50:22.036Z,101072.64
2023-02-15T07:53:14.351Z,101073.99
2023-02-15T07:55:47.403Z,101077.27
2023-02-15T07:58:43.365Z,101079.31
2023-02-15T08:01:14.401Z,101085.05
2023-02-15T08:03:47.430Z,101085.23
2023-02-15T08:06:17.023Z,101086.23
2023-02-15T08:08:50.980Z,101089.14
2023-02-15T08:11:27.656Z,101084.96
2023-02-15T08:14:18.845Z,101091.27
2023-02-15T08:16:52.179Z,101092.75
2023-02-15T08:19:25.412Z,101093.34
2023-02-15T08:22:01.485Z,101094.02
2023-02-15T08:24:41.160Z,101094.27
2023-02-15T08:27:31.818Z,101088.87
2023-02-15T08:30:09.367Z,101094.45
2023-02-15T08:32:39.095Z,101094.91
2023-02-15T08:35:08.611Z,101099.23
2023-02-15T08:37:41.069Z,101099.44
2023-02-15T08:40:11.165Z,101100.23
2023-02-15T08:42:41.699Z,101100.98
2023-02-15T08:45:13.582Z,101102.61
2023-02-15T08:47:42.292Z,101099.80
2023-02-15T08:50:19.812Z,101099.35
2023-02-15T08:52:55.564Z,101098.77
2023-02-15T08:55:32.512Z,101093.98
2023-02-15T08:58:01.786Z,101092.96
2023-02-15T09:01:00.925Z,101087.89
2023-02-15T09:03:33.816Z,101090.84
2023-02-15T09:06:02.470Z,101091.73
2023-02-15T09:08:47.296Z,101089.91
2023-02-15T09:11:50.340Z,101090.58
2023-02-15T09:15:15.551Z,101093.64
2023-02-15T09:17:48.743Z,101090.23
2023-02-15T09:23:58.602Z,101092.05
2023-02-15T09:29:54.646Z,101085.30
2023-02-15T09:33:51.948Z,101084.63
2023-02-15T09:42:34.671Z,101083.70
2023-02-15T09:45:25.369Z,101087.87
2023-02-15T09:48:32.217Z,101086.26
2023-02-15T09:51:11.194Z,101077.27
2023-02-15T09:54:45.182Z,101080.27
2023-02-15T09:57:22.320Z,101085.31
2023-02-15T09:59:58.805Z,101082.91
2023-02-15T10:02:59.375Z,101081.31
2023-02-15T10:11:16.474Z,101078.64
2023-02-15T10:14:30.294Z,101078.23
2023-02-15T10:17:31.963Z,101079.60
2023-02-15T10:20:43.957Z,101074.39
2023-02-15T10:24:02.131Z,101073.98
2023-02-15T10:27:08.689Z,101072.55
2023-02-15T10:30:06.088Z,101072.27
2023-02-15T10:33:42.706Z,101068.63
2023-02-15T10:37:06.716Z,101064.03
2023-02-15T10:41:05.809Z,101063.16
2023-02-15T10:44:16.125Z,101063.52
2023-02-15T10:47:33.939Z,101064.15
2023-02-15T10:51:06.740Z,101058.13
2023-02-15T10:53:58.010Z,101062.46
2023-02-15T10:56:58.333Z,101063.59
2023-02-15T11:00:18.952Z,101062.80
2023-02-15T11:03:30.774Z,101061.64
2023-02-15T11:06:43.229Z,101053.85
2023-02-15T11:09:19.501Z,101059.11
2023-02-15T11:11:53.393Z,101054.41
2023-02-15T11:14:29.613Z,101054.98
2023-02-15T11:17:09.034Z,101053.19
2023-02-15T11:20:44.034Z,101053.80
2023-02-15T11:23:57.183Z,101046.06
2023-02-15T11:26:26.399Z,101051.80
2023-02-15T11:29:48.776Z,101048.98
2023-02-15T11:32:25.433Z,101051.08
2023-02-15T11:35:05.153Z,101050.07
2023-02-15T11:38:24.200Z,101053.07
2023-02-15T11:41:48.447Z,101055.49
2023-02-15T11:44:34.339Z,101053.14
2023-02-15T11:47:21.851Z,101048.38
2023-02-15T11:49:54.010Z,101048.66
2023-02-15T11:52:30.364Z,101051.71
2023-02-15T11:55:11.080Z,101050.81
2023-02-15T11:58:22.781Z,101046.05
2023-02-15T12:02:15.523Z,101043.95
2023-02-15T12:05:00.502Z,101042.58
2023-02-15T12:08:07.044Z,101034.87
2023-02-15T12:11:08.184Z,101033.42
2023-02-15T12:13:39.167Z,101029.80
2023-02-15T12:16:11.503Z,101026.19
2023-02-15T12:26:42.865Z,101023.34
2023-02-15T12:29:18.072Z,101030.20
2023-02-15T12:32:30.622Z,101025.77
2023-02-15T12:36:31.633Z,101022.85
2023-02-15T12:39:43.836Z,101023.62
2023-02-15T12:42:27.888Z,101020.00
2023-02-15T12:45:33.913Z,101016.83
2023-02-15T12:48:29.460Z,101019.98
2023-02-15T12:51:43.244Z,101019.33
2023-02-15T12:54:28.845Z,101023.16
2023-02-15T12:57:24.198Z,101024.52
2023-02-15T13:00:06.342Z,101020.01
2023-02-15T13:03:12.453Z,101022.11
2023-02-15T13:05:50.070Z,101017.69
2023-02-15T13:09:03.476Z,101021.46
2023-02-15T13:12:12.968Z,101023.47
2023-02-15T13:15:48.226Z,101023.42
2023-02-15T13:18:55.846Z,101029.90
2023-02-15T13:21:47.969Z,101029.01
2023-02-15T13:24:32.916Z,101028.83
2023-02-15T13:28:31.826Z,101025.77
2023-02-15T13:31:07.934Z,101032.30
2023-02-15T13:34:06.764Z,101032.63
2023-02-15T13:36:58.397Z,101036.35
2023-02-15T13:39:46.364Z,101038.03
2023-02-15T13:42:39.041Z,101042.48
2023-02-15T13:45:28.679Z,101044.75
2023-02-15T13:48:09.505Z,101045.08
2023-02-15T13:50:56.788Z,101040.35
2023-02-15T13:54:24.459Z,101042.60
2023-02-15T14:01:30.931Z,101039.70
2023-02-15T14:11:12.394Z,101032.98
2023-02-15T14:18:10.369Z,101044.49
2023-02-15T14:21:15.312Z,101045.93
2023-02-15T14:24:23.651Z,101050.62
2023-02-15T14:29:38.567Z,101053.39
2023-02-15T14:32:58.566Z,101050.86
2023-02-15T14:36:32.180Z,101051.74
2023-02-15T14:39:33.845Z,101053.22
2023-02-15T14:42:40.383Z,101057.24
2023-02-15T14:45:24.926Z,101059.91
2023-02-15T14:48:46.678Z,101057.47
2023-02-15T14:52:12.198Z,101061.39
2023-02-15T15:02:49.911Z,101069.44
2023-02-15T15:05:35.600Z,101064.20
2023-02-15T15:09:15.648Z,101068.64
2023-02-15T15:13:00.098Z,101069.67
2023-02-15T15:17:06.192Z,101064.02
2023-02-15T15:19:52.396Z,101065.39
2023-02-15T15:22:26.491Z,101072.07
2023-02-15T15:25:46.451Z,101078.48
2023-02-15T15:28:34.647Z,101079.30
2023-02-15T15:31:33.839Z,101082.10
2023-02-15T15:34:41.164Z,101081.16
2023-02-15T15:42:32.801Z,101081.16
2023-02-15T15:45:05.010Z,101083.23
2023-02-15T15:48:15.483Z,101084.39
2023-02-15T15:50:49.507Z,101087.52
2023-02-15T15:53:30.326Z,101093.50
2023-02-15T15:56:05.026Z,101095.13
2023-02-15T15:58:51.404Z,101096.18
2023-02-15T16:01:40.164Z,101094.52
2023-02-15T16:04:32.949Z,101096.63
2023-02-15T16:07:31.971Z,101096.94
2023-02-15T16:10:25.830Z,101096.52
2023-02-15T16:13:45.704Z,101102.34
2023-02-15T16:17:12.492Z,101104.34
2023-02-15T16:20:14.027Z,101105.81
2023-02-15T16:23:08.622Z,101110.27
2023-02-15T16:26:39.610Z,101110.54
2023-02-15T16:29:35.085Z,101116.80
2023-02-15T16:32:28.353Z,101117.42
2023-02-15T16:35:29.796Z,101116.39
2023-02-15T16:37:58.998Z,101119.28
2023-02-15T16:41:05.409Z,101124.60
2023-02-15T16:44:14.672Z,101121.20
2023-02-15T16:46:57.256Z,101117.16
2023-02-15T16:49:32.663Z,101126.79
2023-02-15T16:52:17.026Z,101124.36
2023-02-15T16:54:52.257Z,101124.19
2023-02-15T16:57:57.386Z,101123.54
2023-02-15T17:00:49.660Z,101127.27
2023-02-15T17:03:28.002Z,101124.03
2023-02-15T17:06:38.682Z,101127.23
2023-02-15T17:09:41.611Z,101123.54
2023-02-15T17:13:30.202Z,101124.75
2023-02-15T17:16:05.309Z,101126.92
2023-02-15T17:18:59.592Z,101125.26
2023-02-15T17:21:54.042Z,101124.05
2023-02-15T17:28:44.603Z,101122.17
2023-02-15T17:31:46.367Z,101121.89
2023-02-15T17:34:57.244Z,101121.66
2023-02-15T17:37:51.241Z,101121.36
2023-02-15T17:40:42.648Z,101122.22
2023-02-15T17:43:47.989Z,101120.84
2023-02-15T17:46:48.008Z,101123.79
2023-02-15T17:49:35.442Z,101122.55
2023-02-15T17:52:14.896Z,101119.23
2023-02-15T17:55:42.467Z,101114.36
2023-02-15T17:58:20.755Z,101118.59
2023-02-15T18:01:25.321Z,101112.23
2023-02-15T18:04:53.298Z,101113.80
2023-02-15T18:07:50.929Z,101116.41
2023-02-15T18:10:51.053Z,101119.18
2023-02-15T18:14:18.130Z,101118.49
2023-02-15T18:17:01.651Z,101121.19
2023-02-15T18:20:09.770Z,101123.20
2023-02-15T18:23:31.710Z,101124.09
2023-02-15T18:26:34.387Z,101126.04
2023-02-15T18:29:35.317Z,101123.94
2023-02-15T18:33:15.989Z,101125.02
2023-02-15T18:36:08.329Z,101126.65
2023-02-15T18:39:55.099Z,101130.00
2023-02-15T18:42:50.871Z,101127.84
2023-02-15T18:46:13.659Z,101128.33
2023-02-15T18:49:03.097Z,101126.48
2023-02-15T18:57:00.514Z,101132.55
2023-02-15T19:00:44.076Z,101133.55
2023-02-15T19:08:26.173Z,101135.85
2023-02-15T19:25:04.010Z,101118.56
2023-02-15T19:27:52.630Z,101115.83
2023-02-15T19:30:49.044Z,101117.75
2023-02-15T19:34:16.118Z,101114.30
2023-02-15T19:36:50.139Z,101116.06
2023-02-15T19:54:46.375Z,101118.55
2023-02-15T20:11:42.831Z,101114.80
2023-02-15T20:15:06.143Z,101120.27
2023-02-15T20:17:38.867Z,101115.67
2023-02-15T20:20:15.686Z,101114.55
2023-02-15T20:23:35.192Z,101113.93
2023-02-15T20:26:33.222Z,101114.27
2023-02-15T20:33:09.041Z,101115.04
2023-02-15T20:36:25.224Z,101108.89
2023-02-15T20:39:20.632Z,101113.30
2023-02-15T20:46:08.334Z,101108.74
2023-02-15T20:49:24.232Z,101104.91
2023-02-15T20:52:42.113Z,101102.41
2023-02-15T21:00:35.133Z,101097.52
2023-02-15T21:08:19.055Z,101102.79
2023-02-15T21:10:48.590Z,101098.83
2023-02-15T21:13:33.043Z,101100.73
2023-02-15T21:16:02.688Z,101096.90
2023-02-15T21:18:33.226Z,101099.95
2023-02-15T21:21:03.450Z,101098.85
2023-02-15T21:23:37.381Z,101104.54
2023-02-15T21:26:06.006Z,101106.20
2023-02-15T21:28:34.285Z,101107.31
2023-02-15T21:31:03.656Z,101106.95
2023-02-15T21:33:32.271Z,101108.90
2023-02-15T21:36:01.465Z,101112.06
2023-02-15T21:38:30.149Z,101114.84
2023-02-15T21:41:18.293Z,101114.28
2023-02-15T21:44:25.072Z,101116.77
2023-02-15T21:47:11.884Z,101118.00
2023-02-15T21:49:40.379Z,101114.68
2023-02-15T21:52:14.535Z,101120.13
2023-02-15T21:54:43.679Z,101119.08
2023-02-15T21:57:16.038Z,101116.69
2023-02-15T21:59:44.498Z,101119.17
2023-02-15T22:02:30.934Z,101117.27
2023-02-15T22:05:01.990Z,101114.50
2023-02-15T22:07:30.764Z,101114.98
2023-02-15T22:09:58.945Z,101114.85
2023-02-15T22:12:27.349Z,101109.80
2023-02-15T22:14:55.592Z,101109.94
2023-02-15T22:17:26.429Z,101107.31
2023-02-15T22:19:54.921Z,101117.60
2023-02-15T22:22:23.087Z,101114.92
2023-02-15T22:24:51.262Z,101114.33
2023-02-15T22:27:25.974Z,101111.21
2023-02-15T22:29:56.955Z,101113.20
2023-02-15T22:32:26.847Z,101113.66
2023-02-15T22:34:57.473Z,101115.84
2023-02-15T22:37:27.183Z,101111.95
2023-02-15T22:39:55.765Z,101110.90
2023-02-15T22:42:25.502Z,101114.77
2023-02-15T22:44:54.879Z,101113.85
2023-02-15T22:47:27.774Z,101112.97
2023-02-15T22:49:55.938Z,101110.30
2023-02-15T22:52:24.952Z,101111.91
2023-02-15T22:54:57.205Z,101107.69
2023-02-15T22:57:31.626Z,101108.57
2023-02-15T23:00:03.381Z,101105.63
2023-02-15T23:02:32.168Z,101105.55
2023-02-15T23:05:00.797Z,101107.61
2023-02-15T23:07:29.234Z,101105.38
2023-02-15T23:09:58.142Z,101105.80
2023-02-15T23:12:28.054Z,101099.29
2023-02-15T23:14:56.119Z,101104.88
2023-02-15T23:17:24.293Z,101103.11
2023-02-15T23:19:52.794Z,101102.63
2023-02-15T23:22:20.957Z,101104.05
2023-02-15T23:24:52.189Z,101102.79
2023-02-15T23:27:49.856Z,101098.21
2023-02-15T23:30:19.415Z,101103.05
2023-02-15T23:32:48.479Z,101106.75
2023-02-15T23:35:18.180Z,101107.27
2023-02-15T23:37:46.465Z,101104.92
2023-02-15T23:40:37.263Z,101103.95
2023-02-15T23:43:05.935Z,101104.58
2023-02-15T23:45:37.162Z,101109.73
2023-02-15T23:48:30.138Z,101106.49
2023-02-15T23:50:59.341Z,101106.52
2023-02-15T23:53:27.509Z,101112.51
2023-02-15T23:55:58.149Z,101113.74
2023-02-15T23:58:35.581Z,101114.49
